Time;durP1;ratioP1;P1;durP2;ratioP2;P2;SDS_P1;SDS_P2;PMS_P1;PMS_P2;Temp;Humidity;BMP_temperature;BMP_pressure;BME280_temperature;BME280_humidity;BME280_pressure;Samples;Min_cycle;Max_cycle;Signal;HPM_P1;HPM_P2
2022/07/21 00:01:09;;;;;;;13.48;8.63;;;22.90;99.90;;;;;;5094213;28;20024;-75
2022/07/21 00:03:35;;;;;;;12.15;8.50;;;22.80;99.90;;;;;;5091713;28;20043;-75
2022/07/21 00:06:02;;;;;;;15.25;8.43;;;22.80;99.90;;;;;;5085594;28;20089;-75
2022/07/21 00:08:28;;;;;;;15.45;7.30;;;22.80;99.90;;;;;;5098382;28;20047;-75
2022/07/21 00:10:54;;;;;;;12.15;9.00;;;22.80;99.90;;;;;;5078621;28;20513;-75
2022/07/21 00:13:20;;;;;;;12.07;7.78;;;22.80;99.90;;;;;;5083572;28;20103;-74
2022/07/21 00:15:46;;;;;;;12.10;7.47;;;22.70;99.90;;;;;;5095995;28;20057;-75
2022/07/21 00:18:12;;;;;;;12.10;7.40;;;22.70;99.90;;;;;;5098413;28;20024;-74
2022/07/21 00:20:38;;;;;;;16.13;8.25;;;22.70;99.90;;;;;;5098524;28;20103;-74
2022/07/21 00:23:04;;;;;;;13.18;8.00;;;22.70;99.90;;;;;;5099296;28;20075;-74
2022/07/21 00:25:30;;;;;;;13.45;8.73;;;22.60;99.90;;;;;;5090113;28;20024;-75
2022/07/21 00:27:56;;;;;;;16.05;8.32;;;22.60;99.90;;;;;;5098431;28;20054;-75
2022/07/21 00:30:22;;;;;;;13.80;8.85;;;22.60;99.90;;;;;;5092197;28;20024;-75
2022/07/21 00:32:48;;;;;;;11.98;7.85;;;22.50;99.90;;;;;;5084367;28;20393;-74
2022/07/21 00:35:15;;;;;;;10.15;7.38;;;22.50;99.90;;;;;;5090405;28;20394;-74
2022/07/21 00:37:41;;;;;;;16.08;8.65;;;22.40;99.90;;;;;;5088639;28;20032;-74
2022/07/21 00:40:09;;;;;;;16.92;8.45;;;22.40;99.90;;;;;;5082514;28;20025;-74
2022/07/21 00:42:36;;;;;;;13.48;7.93;;;22.30;99.90;;;;;;5082745;28;20392;-74
2022/07/21 00:45:04;;;;;;;10.05;7.20;;;22.30;99.90;;;;;;5079948;28;20107;-75
2022/07/21 00:47:31;;;;;;;13.95;7.22;;;22.30;99.90;;;;;;5092226;28;20503;-75
2022/07/21 00:49:59;;;;;;;12.02;7.35;;;22.30;99.90;;;;;;5098464;28;20020;-74
2022/07/21 00:52:25;;;;;;;10.75;7.38;;;22.20;99.90;;;;;;5094233;28;20040;-75
2022/07/21 00:54:51;;;;;;;13.93;7.32;;;22.20;99.90;;;;;;5097550;28;20460;-75
2022/07/21 00:57:17;;;;;;;11.57;7.43;;;22.10;99.90;;;;;;5094202;28;20024;-75
2022/07/21 00:59:44;;;;;;;11.95;6.60;;;22.10;99.90;;;;;;5094218;28;20050;-75
2022/07/21 01:02:12;;;;;;;12.18;7.40;;;22.00;99.90;;;;;;5091178;28;20056;-75
2022/07/21 01:04:38;;;;;;;12.85;7.63;;;22.10;99.90;;;;;;5088525;28;20029;-75
2022/07/21 01:07:06;;;;;;;14.10;7.47;;;22.00;99.90;;;;;;5090198;28;20024;-75
2022/07/21 01:09:32;;;;;;;13.10;7.82;;;22.00;99.90;;;;;;5085074;28;20029;-75
2022/07/21 01:11:59;;;;;;;11.57;6.93;;;21.90;99.90;;;;;;5095523;28;20024;-74
2022/07/21 01:14:25;;;;;;;14.00;7.63;;;21.90;99.90;;;;;;5090023;28;20503;-74
2022/07/21 01:16:51;;;;;;;18.45;8.13;;;21.80;99.90;;;;;;5094728;28;20016;-74
2022/07/21 01:19:18;;;;;;;18.05;7.68;;;21.80;99.90;;;;;;5097716;28;20608;-75
2022/07/21 01:21:46;;;;;;;13.50;8.50;;;21.70;99.90;;;;;;5097436;28;20032;-74
2022/07/21 01:24:13;;;;;;;22.15;8.57;;;21.70;99.90;;;;;;5093642;28;20023;-75
2022/07/21 01:26:46;;;;;;;11.77;6.80;;;21.60;99.90;;;;;;5094157;28;20108;-75
2022/07/21 01:29:14;;;;;;;12.88;7.82;;;21.60;99.90;;;;;;5095505;28;20016;-75
2022/07/21 01:31:41;;;;;;;12.65;7.18;;;21.60;99.90;;;;;;5086291;28;20021;-75
2022/07/21 01:34:08;;;;;;;12.57;7.40;;;21.60;99.90;;;;;;5080978;28;20020;-75
2022/07/21 01:36:34;;;;;;;13.90;7.72;;;21.50;99.90;;;;;;5083857;28;20031;-75
2022/07/21 01:41:45;;;;;;;15.55;8.02;;;21.40;99.90;;;;;;5090372;28;20035;-74
2022/07/21 01:44:12;;;;;;;12.73;6.90;;;21.50;99.90;;;;;;5091776;28;20024;-74
2022/07/21 01:46:45;;;;;;;11.57;6.85;;;21.40;99.90;;;;;;5078019;28;20021;-75
2022/07/21 01:49:13;;;;;;;10.75;6.22;;;21.40;99.90;;;;;;5092045;28;20020;-75
2022/07/21 01:51:39;;;;;;;11.63;6.30;;;21.40;99.90;;;;;;5096778;28;20048;-75
2022/07/21 01:54:06;;;;;;;12.15;6.40;;;21.30;99.90;;;;;;5093008;28;20436;-74
2022/07/21 01:56:33;;;;;;;17.13;5.93;;;21.30;99.90;;;;;;5093612;28;20103;-74
2022/07/21 01:58:59;;;;;;;15.75;5.72;;;21.30;99.90;;;;;;5093706;28;20024;-75
2022/07/21 02:01:28;;;;;;;16.80;6.20;;;21.30;99.90;;;;;;5089418;28;20012;-75
2022/07/21 02:03:59;;;;;;;9.27;6.50;;;21.20;99.90;;;;;;5087970;28;20439;-74
2022/07/21 02:06:26;;;;;;;11.00;5.88;;;21.20;99.90;;;;;;5086816;28;20503;-74
2022/07/21 02:08:52;;;;;;;10.68;6.32;;;21.20;99.90;;;;;;5085011;28;20032;-73
2022/07/21 02:11:20;;;;;;;8.65;5.90;;;21.20;99.90;;;;;;5082674;28;20029;-73
2022/07/21 02:13:46;;;;;;;10.75;6.20;;;21.20;99.90;;;;;;5084937;28;20552;-73
2022/07/21 02:16:12;;;;;;;14.40;6.60;;;21.10;99.90;;;;;;5095701;28;20016;-73
2022/07/21 02:18:38;;;;;;;11.35;5.97;;;21.10;99.90;;;;;;5095019;28;20023;-75
2022/07/21 02:21:05;;;;;;;13.30;5.68;;;21.10;99.90;;;;;;5094473;28;20024;-74
2022/07/21 02:23:32;;;;;;;11.45;5.65;;;21.10;99.90;;;;;;5089790;28;20094;-74
2022/07/21 02:25:58;;;;;;;25.88;7.00;;;21.10;99.90;;;;;;5096122;28;20024;-74
2022/07/21 02:28:24;;;;;;;9.23;5.85;;;21.10;99.90;;;;;;5090497;28;20031;-74
2022/07/21 02:30:50;;;;;;;12.52;6.20;;;21.10;99.90;;;;;;5089664;28;20045;-74
2022/07/21 02:33:17;;;;;;;8.68;5.20;;;21.00;99.90;;;;;;5091715;28;20407;-75
2022/07/21 02:35:44;;;;;;;11.50;5.95;;;21.00;99.90;;;;;;5084383;28;20510;-75
2022/07/21 02:38:11;;;;;;;10.18;5.60;;;21.00;99.90;;;;;;5083665;28;20023;-74
2022/07/21 02:40:37;;;;;;;10.85;5.68;;;21.00;99.90;;;;;;5080684;28;20548;-74
2022/07/21 02:43:05;;;;;;;11.48;5.70;;;21.00;99.90;;;;;;5081268;28;20020;-74
2022/07/21 02:45:31;;;;;;;9.20;5.85;;;20.90;99.90;;;;;;5078268;28;20025;-74
2022/07/21 02:48:03;;;;;;;13.02;5.85;;;20.90;99.90;;;;;;5094326;28;20031;-75
2022/07/21 02:50:32;;;;;;;9.35;5.55;;;20.90;99.90;;;;;;5095619;28;20460;-75
2022/07/21 02:53:01;;;;;;;7.82;5.53;;;20.90;99.90;;;;;;5095030;28;20054;-75
2022/07/21 02:55:27;;;;;;;8.32;5.32;;;20.90;99.90;;;;;;5094776;28;20472;-75
2022/07/21 02:58:11;;;;;;;8.20;5.28;;;20.80;99.90;;;;;;5090251;28;20028;-74
2022/07/21 03:00:59;;;;;;;10.30;5.65;;;20.80;99.90;;;;;;5089606;28;20456;-74
2022/07/21 03:03:31;;;;;;;10.73;5.07;;;20.80;99.90;;;;;;5087199;28;20373;-75
2022/07/21 03:05:57;;;;;;;9.55;5.57;;;20.80;99.90;;;;;;5091230;28;20032;-75
2022/07/21 03:08:24;;;;;;;9.85;5.50;;;20.80;99.90;;;;;;5096486;28;20024;-75
2022/07/21 03:10:50;;;;;;;10.68;5.88;;;20.80;99.90;;;;;;5084536;28;20061;-74
2022/07/21 03:13:16;;;;;;;11.20;6.03;;;20.80;99.90;;;;;;5097153;28;20028;-74
2022/07/21 03:15:44;;;;;;;8.40;5.00;;;20.70;99.90;;;;;;5087639;28;20031;-75
2022/07/21 03:18:10;;;;;;;14.82;5.75;;;20.70;99.90;;;;;;5091557;28;20020;-74
2022/07/21 03:20:39;;;;;;;10.70;5.60;;;20.70;99.90;;;;;;5090753;28;20174;-74
2022/07/21 03:23:05;;;;;;;7.88;4.78;;;20.70;99.90;;;;;;5082468;28;20051;-74
2022/07/21 03:25:31;;;;;;;10.20;5.72;;;20.70;99.90;;;;;;5084561;28;20028;-75
2022/07/21 03:27:58;;;;;;;11.63;5.97;;;20.60;99.90;;;;;;5090429;28;20024;-74
2022/07/21 03:30:24;;;;;;;7.50;4.97;;;20.60;99.90;;;;;;5079171;28;20485;-75
2022/07/21 03:32:50;;;;;;;9.68;6.07;;;20.50;99.90;;;;;;5084042;28;20520;-75
2022/07/21 03:35:17;;;;;;;9.32;5.78;;;20.50;99.90;;;;;;5088159;28;20044;-75
2022/07/21 03:37:49;;;;;;;13.10;5.60;;;20.50;99.90;;;;;;5098509;28;20020;-74
2022/07/21 03:40:17;;;;;;;8.80;5.47;;;20.40;99.90;;;;;;5099203;28;20023;-74
2022/07/21 03:42:43;;;;;;;9.32;5.65;;;20.40;99.90;;;;;;5097454;28;20051;-74
2022/07/21 03:45:10;;;;;;;10.63;5.65;;;20.40;99.90;;;;;;5098551;28;20058;-74
2022/07/21 03:47:36;;;;;;;10.55;5.40;;;20.40;99.90;;;;;;5093877;28;20038;-74
2022/07/21 03:50:04;;;;;;;12.10;5.00;;;20.40;99.90;;;;;;5096756;28;20024;-74
2022/07/21 03:52:30;;;;;;;10.32;5.07;;;20.30;99.90;;;;;;5090232;28;20048;-75
2022/07/21 03:55:07;;;;;;;9.48;4.93;;;20.30;99.90;;;;;;5094797;28;20046;-74
2022/07/21 03:57:41;;;;;;;11.07;5.72;;;20.30;99.90;;;;;;5094909;28;20020;-75
2022/07/21 04:00:11;;;;;;;10.57;5.15;;;20.30;99.90;;;;;;5087750;28;20031;-74
2022/07/21 04:02:37;;;;;;;9.93;5.05;;;20.20;99.90;;;;;;5092949;28;20029;-74
2022/07/21 04:05:04;;;;;;;11.30;4.97;;;20.20;99.90;;;;;;5094043;28;20032;-74
2022/07/21 04:07:30;;;;;;;9.88;5.35;;;20.20;99.90;;;;;;5093507;28;20027;-75
2022/07/21 04:09:56;;;;;;;9.77;5.85;;;20.20;99.90;;;;;;5080786;28;20016;-75
2022/07/21 04:12:28;;;;;;;9.18;5.35;;;20.10;99.90;;;;;;5097169;28;20538;-74
2022/07/21 04:14:55;;;;;;;6.35;4.57;;;20.10;99.90;;;;;;5098078;28;20012;-75
2022/07/21 04:17:22;;;;;;;9.52;4.88;;;20.00;99.90;;;;;;5096015;28;20097;-75
2022/07/21 04:19:48;;;;;;;10.27;5.10;;;20.00;99.90;;;;;;5095448;28;20026;-74
2022/07/21 04:22:14;;;;;;;9.02;4.57;;;20.00;99.90;;;;;;5094363;28;20550;-74
2022/07/21 04:24:40;;;;;;;9.80;5.30;;;20.00;99.90;;;;;;5092854;28;20392;-74
2022/07/21 04:27:06;;;;;;;13.55;5.28;;;19.90;99.90;;;;;;5086119;28;20020;-75
2022/07/21 04:29:32;;;;;;;10.27;5.40;;;19.90;99.90;;;;;;5097474;28;20104;-74
2022/07/21 04:31:58;;;;;;;8.48;4.65;;;19.90;99.90;;;;;;5089710;28;20032;-74
2022/07/21 04:34:24;;;;;;;8.35;4.32;;;19.90;99.90;;;;;;5088084;28;20047;-72
2022/07/21 04:36:50;;;;;;;6.55;5.10;;;19.80;99.90;;;;;;5080928;28;20017;-73
2022/07/21 04:39:15;;;;;;;11.20;4.85;;;19.80;99.90;;;;;;5081493;28;20017;-73
2022/07/21 04:41:41;;;;;;;8.73;5.28;;;19.70;99.90;;;;;;5087429;28;20028;-73
2022/07/21 04:44:07;;;;;;;8.65;4.88;;;19.70;99.90;;;;;;5096730;28;20024;-73
2022/07/21 04:46:33;;;;;;;10.98;5.18;;;19.70;99.90;;;;;;5095434;28;20484;-73
2022/07/21 04:48:59;;;;;;;9.13;4.45;;;19.70;99.90;;;;;;5114213;28;20012;-73
2022/07/21 04:51:25;;;;;;;11.98;5.03;;;19.70;99.90;;;;;;5098768;28;20419;-73
2022/07/21 04:53:50;;;;;;;10.68;5.88;;;19.70;99.90;;;;;;5104108;28;20028;-73
2022/07/21 04:56:16;;;;;;;12.25;5.43;;;19.70;99.90;;;;;;5100773;28;20111;-73
2022/07/21 04:58:42;;;;;;;9.70;5.30;;;19.80;99.90;;;;;;5088054;28;20046;-73
2022/07/21 05:01:08;;;;;;;10.25;5.28;;;19.80;99.90;;;;;;5088078;28;20432;-73
2022/07/21 05:03:34;;;;;;;13.15;5.63;;;19.80;99.90;;;;;;5085322;28;20099;-73
2022/07/21 05:05:59;;;;;;;7.05;4.43;;;19.90;99.90;;;;;;5097904;28;20513;-73
2022/07/21 05:08:27;;;;;;;10.27;4.93;;;19.90;99.90;;;;;;5097611;28;20095;-73
2022/07/21 05:10:53;;;;;;;9.48;4.90;;;19.90;99.90;;;;;;5097336;28;20384;-73
2022/07/21 05:13:19;;;;;;;10.45;4.68;;;20.00;99.90;;;;;;5095187;28;20059;-73
2022/07/21 05:15:45;;;;;;;10.18;4.50;;;20.00;99.90;;;;;;5093003;28;20024;-73
2022/07/21 05:18:11;;;;;;;7.43;4.68;;;20.00;99.90;;;;;;5093158;28;20371;-73
2022/07/21 05:20:37;;;;;;;9.73;4.32;;;20.10;99.90;;;;;;5097280;28;20035;-73
2022/07/21 05:23:03;;;;;;;8.60;4.57;;;20.20;99.90;;;;;;5097241;28;20028;-73
2022/07/21 05:25:31;;;;;;;9.95;4.22;;;20.20;99.90;;;;;;5091453;28;20116;-73
2022/07/21 05:27:58;;;;;;;6.25;4.03;;;20.30;99.90;;;;;;5090951;28;20505;-73
2022/07/21 05:30:24;;;;;;;8.48;4.50;;;20.30;99.90;;;;;;5089718;28;20028;-73
2022/07/21 05:32:49;;;;;;;7.03;4.75;;;20.40;99.90;;;;;;5090189;28;20439;-74
2022/07/21 05:35:16;;;;;;;14.30;4.97;;;20.40;99.90;;;;;;5097105;28;20434;-73
2022/07/21 05:37:42;;;;;;;10.85;5.07;;;20.50;99.90;;;;;;5096962;28;20396;-74
2022/07/21 05:40:09;;;;;;;9.32;4.72;;;20.50;99.90;;;;;;5095443;28;20008;-74
2022/07/21 05:42:35;;;;;;;8.70;4.38;;;20.60;99.90;;;;;;5096828;28;20020;-73
2022/07/21 05:45:02;;;;;;;17.77;4.75;;;20.60;99.90;;;;;;5090765;28;20546;-74
2022/07/21 05:47:29;;;;;;;9.50;4.55;;;20.70;99.90;;;;;;5080020;28;20056;-73
2022/07/21 05:49:55;;;;;;;5.50;3.88;;;20.80;99.90;;;;;;5085061;28;20035;-74
2022/07/21 05:52:21;;;;;;;8.63;4.13;;;20.80;99.90;;;;;;5094652;28;20048;-73
2022/07/21 05:54:47;;;;;;;9.60;4.53;;;20.80;99.90;;;;;;5096608;28;20107;-74
2022/07/21 05:57:13;;;;;;;10.38;4.25;;;20.90;99.90;;;;;;5093995;28;20498;-74
2022/07/21 05:59:39;;;;;;;9.80;5.07;;;20.90;99.90;;;;;;5093452;28;20031;-73
2022/07/21 06:02:05;;;;;;;10.45;4.38;;;21.00;99.90;;;;;;5094862;28;20016;-73
2022/07/21 06:04:31;;;;;;;7.43;4.68;;;21.00;99.90;;;;;;5087185;28;20048;-73
2022/07/21 06:06:56;;;;;;;9.15;4.68;;;21.10;99.90;;;;;;5094870;28;20024;-73
2022/07/21 06:09:22;;;;;;;9.93;4.00;;;21.10;99.90;;;;;;5082937;28;20025;-73
2022/07/21 06:11:48;;;;;;;9.35;4.47;;;21.20;99.90;;;;;;5096097;28;20029;-74
2022/07/21 06:14:14;;;;;;;10.00;4.30;;;21.20;99.90;;;;;;5089348;28;20036;-73
2022/07/21 06:16:40;;;;;;;9.60;4.05;;;21.30;99.90;;;;;;5081959;28;20027;-73
2022/07/21 06:19:06;;;;;;;7.20;4.05;;;21.30;99.90;;;;;;5096314;28;20031;-73
2022/07/21 06:21:32;;;;;;;10.95;4.68;;;21.40;99.90;;;;;;5095187;28;20438;-73
2022/07/21 06:23:59;;;;;;;10.38;3.65;;;21.40;99.90;;;;;;5083800;28;20028;-73
2022/07/21 06:26:25;;;;;;;7.38;4.18;;;21.50;99.90;;;;;;5096230;28;20038;-72
2022/07/21 06:28:51;;;;;;;10.43;3.95;;;21.50;99.90;;;;;;5095319;28;20047;-73
2022/07/21 06:31:17;;;;;;;7.10;3.97;;;21.50;99.90;;;;;;5094799;28;20024;-72
2022/07/21 06:33:43;;;;;;;15.85;5.18;;;21.50;99.90;;;;;;5090681;28;20062;-73
2022/07/21 06:36:09;;;;;;;10.50;4.70;;;21.60;99.90;;;;;;5091152;28;20047;-72
2022/07/21 06:38:35;;;;;;;11.45;3.95;;;21.70;99.90;;;;;;5086898;28;20017;-72
2022/07/21 06:41:01;;;;;;;9.77;4.57;;;21.80;99.90;;;;;;5094099;28;20016;-75
2022/07/21 06:43:27;;;;;;;6.10;4.20;;;21.80;99.90;;;;;;5081759;28;20392;-75
2022/07/21 06:45:53;;;;;;;10.93;4.30;;;21.90;99.90;;;;;;5083525;28;20026;-74
2022/07/21 06:48:19;;;;;;;11.27;4.70;;;21.90;99.90;;;;;;5069742;28;20028;-75
2022/07/21 06:50:45;;;;;;;11.35;5.20;;;21.90;99.90;;;;;;5080420;28;20081;-75
2022/07/21 06:53:11;;;;;;;12.25;4.88;;;22.00;99.90;;;;;;5084853;28;20044;-74
2022/07/21 06:55:37;;;;;;;17.30;3.97;;;22.00;99.90;;;;;;5083017;28;20066;-75
2022/07/21 06:58:11;;;;;;;12.30;4.10;;;22.10;99.90;;;;;;5095948;28;20051;-74
2022/07/21 07:00:37;;;;;;;11.57;4.95;;;22.20;99.90;;;;;;5091015;28;20016;-75
2022/07/21 07:03:03;;;;;;;10.68;4.10;;;22.40;99.90;;;;;;5094125;28;20020;-74
2022/07/21 07:05:30;;;;;;;8.82;4.22;;;22.70;99.90;;;;;;5090536;28;20081;-75
2022/07/21 07:07:56;;;;;;;10.32;4.28;;;22.90;99.90;;;;;;5094217;28;20459;-74
2022/07/21 07:10:22;;;;;;;12.73;4.55;;;22.90;99.90;;;;;;5094115;28;20066;-75
2022/07/21 07:12:48;;;;;;;15.25;4.65;;;22.90;99.90;;;;;;5086233;28;20028;-75
2022/07/21 07:15:14;;;;;;;7.93;3.53;;;22.90;99.90;;;;;;5085942;28;20088;-74
2022/07/21 07:17:40;;;;;;;10.10;4.45;;;23.00;99.90;;;;;;5082351;28;20045;-75
2022/07/21 07:20:07;;;;;;;14.25;5.18;;;23.00;99.90;;;;;;5093791;28;20055;-75
2022/07/21 07:22:34;;;;;;;7.55;3.95;;;23.10;99.90;;;;;;5079812;28;20036;-75
2022/07/21 07:24:59;;;;;;;12.70;4.63;;;23.30;99.90;;;;;;5080869;28;20016;-74
2022/07/21 07:27:25;;;;;;;7.28;4.20;;;23.50;99.90;;;;;;5077865;28;20074;-74
2022/07/21 07:29:52;;;;;;;11.20;4.28;;;23.70;99.90;;;;;;5079749;28;20024;-74
2022/07/21 07:32:17;;;;;;;7.18;3.88;;;23.90;99.90;;;;;;5095388;28;20091;-75
2022/07/21 07:34:43;;;;;;;11.63;4.45;;;24.10;99.90;;;;;;5093362;28;20455;-75
2022/07/21 07:37:09;;;;;;;14.63;4.45;;;24.20;99.90;;;;;;5095565;28;20016;-75
2022/07/21 07:39:37;;;;;;;13.05;4.45;;;24.40;99.90;;;;;;5088651;28;20021;-74
2022/07/21 07:42:04;;;;;;;11.18;4.20;;;24.50;99.90;;;;;;5094684;28;20483;-75
2022/07/21 07:44:31;;;;;;;11.27;4.10;;;24.70;99.90;;;;;;5082046;28;20020;-75
2022/07/21 07:46:58;;;;;;;14.00;4.82;;;24.80;99.90;;;;;;5078863;28;20021;-74
2022/07/21 07:49:24;;;;;;;8.35;3.78;;;24.90;99.90;;;;;;5091769;28;20031;-75
2022/07/21 07:51:49;;;;;;;11.27;3.60;;;25.00;99.90;;;;;;5077086;28;20116;-75
2022/07/21 07:54:15;;;;;;;7.40;3.83;;;25.20;99.90;;;;;;5092396;28;20048;-75
2022/07/21 07:56:41;;;;;;;5.75;3.33;;;25.30;99.90;;;;;;5096697;28;20036;-75
2022/07/21 07:59:08;;;;;;;11.43;4.72;;;25.20;99.90;;;;;;5092456;28;20453;-75
2022/07/21 08:01:33;;;;;;;16.90;4.57;;;25.20;99.90;;;;;;5093100;28;20509;-75
2022/07/21 08:03:59;;;;;;;10.77;4.07;;;25.30;99.90;;;;;;5086456;28;20429;-75
2022/07/21 08:06:25;;;;;;;9.30;3.83;;;25.40;99.90;;;;;;5095109;28;20023;-75
2022/07/21 08:08:51;;;;;;;14.18;4.30;;;25.50;99.90;;;;;;5086095;28;20384;-74
2022/07/21 08:11:17;;;;;;;9.52;3.83;;;25.60;99.90;;;;;;5087504;28;20529;-75
2022/07/21 08:13:44;;;;;;;10.38;4.43;;;25.60;99.90;;;;;;5087879;28;20023;-75
2022/07/21 08:16:11;;;;;;;8.63;3.95;;;25.60;99.90;;;;;;5086904;28;20139;-75
2022/07/21 08:18:38;;;;;;;7.32;4.35;;;25.50;99.90;;;;;;5089374;28;20076;-75
2022/07/21 08:21:04;;;;;;;10.48;3.67;;;25.40;99.90;;;;;;5089616;28;20029;-75
2022/07/21 08:23:29;;;;;;;10.32;3.97;;;25.30;99.90;;;;;;5094424;28;20039;-75
2022/07/21 08:25:55;;;;;;;10.35;3.50;;;25.50;99.90;;;;;;5079748;28;20020;-75
2022/07/21 08:28:22;;;;;;;10.65;3.83;;;25.50;99.90;;;;;;5081428;28;20016;-75
2022/07/21 08:30:50;;;;;;;10.40;3.80;;;25.40;99.90;;;;;;5079165;28;20029;-76
2022/07/21 08:33:16;;;;;;;10.50;4.43;;;25.50;99.90;;;;;;5096061;28;20522;-75
2022/07/21 08:35:42;;;;;;;8.35;3.30;;;25.70;99.90;;;;;;5097493;28;20024;-75
2022/07/21 08:38:11;;;;;;;7.55;3.97;;;25.90;99.50;;;;;;5094655;28;20028;-75
2022/07/21 08:40:42;;;;;;;10.18;4.53;;;26.00;99.10;;;;;;5098600;28;20028;-75
2022/07/21 08:43:08;;;;;;;;;;;26.20;99.60;;;;;;5085797;28;20046;-76
2022/07/21 08:45:36;;;;;;;9.32;3.72;;;26.40;99.30;;;;;;5091736;28;19926;-75
2022/07/21 08:48:03;;;;;;;11.50;4.32;;;26.50;98.80;;;;;;5082151;28;20033;-76
2022/07/21 08:50:32;;;;;;;8.90;3.60;;;26.60;98.80;;;;;;5082012;28;20055;-75
2022/07/21 08:52:58;;;;;;;8.70;3.88;;;26.70;98.50;;;;;;5091702;28;20032;-74
2022/07/21 08:55:24;;;;;;;6.30;3.97;;;26.90;98.30;;;;;;5091393;28;20058;-75
2022/07/21 08:57:50;;;;;;;7.82;3.95;;;26.90;97.80;;;;;;5096611;28;20051;-75
2022/07/21 09:00:17;;;;;;;7.50;4.15;;;27.00;97.50;;;;;;5095900;28;20107;-75
2022/07/21 09:02:43;;;;;;;11.85;4.00;;;26.80;97.00;;;;;;5095652;28;20023;-76
2022/07/21 09:05:09;;;;;;;9.25;4.00;;;26.70;97.70;;;;;;5097794;28;20024;-75
2022/07/21 09:07:54;;;;;;;10.77;3.92;;;26.60;97.10;;;;;;5097638;28;20083;-75
2022/07/21 09:10:26;;;;;;;7.03;4.28;;;26.60;97.50;;;;;;5090525;28;20039;-75
2022/07/21 09:12:55;;;;;;;12.70;4.55;;;26.60;97.50;;;;;;5089276;28;20031;-75
2022/07/21 09:15:24;;;;;;;8.68;4.25;;;26.90;97.10;;;;;;5093818;28;20112;-76
2022/07/21 09:18:11;;;;;;;4.78;3.60;;;27.00;96.60;;;;;;5086253;28;20059;-76
2022/07/21 09:20:39;;;;;;;7.70;3.72;;;27.40;96.60;;;;;;5083004;28;20040;-76
2022/07/21 09:23:10;;;;;;;8.38;4.00;;;27.50;96.10;;;;;;5093735;28;20542;-73
2022/07/21 09:25:45;;;;;;;9.20;4.38;;;27.70;95.20;;;;;;5087668;28;20039;-75
2022/07/21 09:28:18;;;;;;;7.65;3.80;;;27.70;95.10;;;;;;5094868;28;20028;-74
2022/07/21 09:30:58;;;;;;;6.38;3.78;;;27.70;94.50;;;;;;5094081;28;20024;-74
2022/07/21 09:33:31;;;;;;;7.63;4.15;;;27.70;94.90;;;;;;5096880;28;20020;-75
2022/07/21 09:35:59;;;;;;;9.73;4.82;;;27.70;95.20;;;;;;5097247;28;20116;-75
2022/07/21 09:38:29;;;;;;;8.15;4.57;;;27.80;95.10;;;;;;5094637;28;20035;-75
2022/07/21 09:40:56;;;;;;;7.05;3.95;;;28.00;94.90;;;;;;5086729;28;20044;-74
2022/07/21 09:43:44;;;;;;;11.25;4.03;;;28.00;94.20;;;;;;5079759;28;20044;-74
2022/07/21 09:46:16;;;;;;;8.50;4.55;;;28.10;94.20;;;;;;5094807;28;20044;-75
2022/07/21 09:48:43;;;;;;;8.80;3.78;;;28.20;94.40;;;;;;5098284;28;20093;-74
2022/07/21 09:51:19;;;;;;;10.30;4.70;;;28.30;94.00;;;;;;5096722;28;20052;-75
2022/07/21 09:53:59;;;;;;;10.52;4.38;;;28.30;93.40;;;;;;5096907;28;20404;-74
2022/07/21 09:56:26;;;;;;;7.70;4.30;;;28.20;93.20;;;;;;5095067;28;20016;-74
2022/07/21 09:58:55;;;;;;;7.85;4.22;;;28.10;93.60;;;;;;5096098;28;20543;-74
2022/07/21 10:01:22;;;;;;;6.93;4.03;;;27.90;93.20;;;;;;5089515;28;20024;-73
2022/07/21 10:03:49;;;;;;;7.10;4.40;;;27.70;93.50;;;;;;5095613;28;20057;-73
2022/07/21 10:06:17;;;;;;;11.88;4.55;;;27.60;93.80;;;;;;5084623;28;20024;-74
2022/07/21 10:08:43;;;;;;;6.65;4.30;;;27.50;93.90;;;;;;5094712;28;20024;-74
2022/07/21 10:11:10;;;;;;;6.65;3.85;;;27.80;94.80;;;;;;5089512;28;20392;-74
2022/07/21 10:13:39;;;;;;;8.23;4.20;;;28.10;93.90;;;;;;5083927;28;20063;-75
2022/07/21 10:16:06;;;;;;;7.15;4.30;;;28.10;93.90;;;;;;5078416;28;20052;-75
2022/07/21 10:18:51;;;;;;;7.32;4.63;;;28.30;93.50;;;;;;5079840;28;20074;-74
2022/07/21 10:21:39;;;;;;;10.02;4.28;;;28.60;93.90;;;;;;5090209;28;20099;-74
2022/07/21 10:24:05;;;;;;;7.78;4.30;;;28.90;93.20;;;;;;5095910;28;20024;-74
2022/07/21 10:26:31;;;;;;;12.25;3.92;;;28.90;92.10;;;;;;5092446;28;20031;-74
2022/07/21 10:28:57;;;;;;;9.55;4.22;;;29.00;92.30;;;;;;5096125;28;20023;-73
2022/07/21 10:31:27;;;;;;;8.73;3.85;;;29.00;91.90;;;;;;5090614;28;20393;-74
2022/07/21 10:33:55;;;;;;;9.60;4.60;;;28.80;91.90;;;;;;5093839;28;20028;-75
2022/07/21 10:36:27;;;;;;;6.90;4.10;;;28.90;92.50;;;;;;5086295;28;20029;-75
2022/07/21 10:39:20;;;;;;;15.05;4.22;;;29.00;92.00;;;;;;5094674;28;20028;-74
2022/07/21 10:41:55;;;;;;;8.75;4.35;;;29.10;92.40;;;;;;5084182;28;20107;-74
2022/07/21 10:44:30;;;;;;;9.38;4.20;;;29.40;91.90;;;;;;5091928;28;20035;-74
2022/07/21 10:47:08;;;;;;;9.75;3.88;;;29.30;90.90;;;;;;5078559;28;20113;-74
2022/07/21 10:49:44;;;;;;;8.43;4.78;;;29.40;91.20;;;;;;5091353;28;20019;-74
2022/07/21 10:52:39;;;;;;;9.00;3.80;;;29.50;91.20;;;;;;5089255;28;20046;-75
2022/07/21 10:55:13;;;;;;;6.68;3.92;;;29.70;91.10;;;;;;5082066;28;20037;-75
2022/07/21 10:57:42;;;;;;;9.10;3.85;;;29.70;90.40;;;;;;5094925;28;20047;-75
2022/07/21 11:00:21;;;;;;;5.13;3.90;;;29.80;90.50;;;;;;5091244;28;20020;-74
2022/07/21 11:02:52;;;;;;;5.13;4.15;;;29.80;89.00;;;;;;5093107;28;20055;-74
2022/07/21 11:05:19;;;;;;;10.75;4.30;;;29.60;88.70;;;;;;5095974;28;20027;-74
2022/07/21 11:08:13;;;;;;;6.95;3.92;;;29.20;90.10;;;;;;5095559;28;20490;-74
2022/07/21 11:10:51;;;;;;;7.72;4.22;;;29.10;90.40;;;;;;5095479;28;20029;-74
2022/07/21 11:13:19;;;;;;;7.03;4.28;;;29.20;90.10;;;;;;5094092;28;20032;-74
2022/07/21 11:15:46;;;;;;;7.43;3.88;;;29.00;90.60;;;;;;5092553;28;20051;-73
2022/07/21 11:18:32;;;;;;;9.68;4.82;;;29.10;90.30;;;;;;5091202;28;20438;-74
2022/07/21 11:21:11;;;;;;;7.80;4.47;;;29.00;90.00;;;;;;5092758;28;20012;-73
2022/07/21 11:23:41;;;;;;;10.25;4.40;;;29.00;90.20;;;;;;5086893;28;20115;-74
2022/07/21 11:26:08;;;;;;;9.07;3.90;;;29.00;90.30;;;;;;5095971;28;20016;-74
2022/07/21 11:28:33;;;;;;;7.35;4.85;;;28.90;90.40;;;;;;5090708;28;20032;-74
2022/07/21 11:31:12;;;;;;;8.27;4.30;;;29.10;90.70;;;;;;5093448;28;20484;-75
2022/07/21 11:33:43;;;;;;;8.85;4.32;;;29.40;90.10;;;;;;5080707;28;20087;-76
2022/07/21 11:36:10;;;;;;;9.50;4.32;;;29.60;90.30;;;;;;5093566;28;20012;-78
2022/07/21 11:38:36;;;;;;;9.68;5.20;;;29.80;88.40;;;;;;5085288;28;20031;-77
2022/07/21 11:41:18;;;;;;;9.68;5.05;;;29.80;87.50;;;;;;5080763;28;20520;-78
2022/07/21 11:43:46;;;;;;;10.55;5.65;;;29.90;88.20;;;;;;5086186;28;20104;-80
2022/07/21 11:46:13;;;;;;;10.13;4.85;;;30.10;85.70;;;;;;5095597;28;20035;-76
2022/07/21 11:48:40;;;;;;;9.65;5.35;;;30.30;87.50;;;;;;5098466;28;20020;-78
2022/07/21 11:51:07;;;;;;;9.30;4.57;;;30.50;86.30;;;;;;5100323;28;20048;-75
2022/07/21 11:53:33;;;;;;;7.70;5.32;;;30.60;84.80;;;;;;5099084;28;20066;-75
2022/07/21 11:55:59;;;;;;;8.65;4.40;;;30.60;82.50;;;;;;5096274;28;20426;-76
2022/07/21 11:58:25;;;;;;;12.00;5.13;;;30.30;82.50;;;;;;5100128;28;20051;-77
2022/07/21 12:01:05;;;;;;;7.00;4.25;;;30.00;84.40;;;;;;5083759;28;20202;-77
2022/07/21 12:03:31;;;;;;;12.32;4.13;;;30.10;86.40;;;;;;5083244;28;20020;-78
2022/07/21 12:05:59;;;;;;;8.00;4.22;;;30.10;85.80;;;;;;5087974;28;20035;-76
2022/07/21 12:08:26;;;;;;;7.13;4.13;;;30.20;85.10;;;;;;5099396;28;20081;-78
2022/07/21 12:11:04;;;;;;;6.65;3.80;;;30.40;84.50;;;;;;5100318;28;20031;-77
2022/07/21 12:13:30;;;;;;;7.78;4.32;;;30.70;85.40;;;;;;5095173;28;20016;-78
2022/07/21 12:15:56;;;;;;;5.43;3.63;;;31.00;83.50;;;;;;5095717;28;20035;-77
2022/07/21 12:18:25;;;;;;;11.07;4.85;;;31.10;83.60;;;;;;5097923;28;20028;-77
2022/07/21 12:21:07;;;;;;;8.83;4.60;;;31.30;82.40;;;;;;5095070;28;20442;-77
2022/07/21 12:23:33;;;;;;;10.50;4.63;;;31.30;79.90;;;;;;5098531;28;20096;-77
2022/07/21 12:26:00;;;;;;;10.10;4.53;;;31.10;81.50;;;;;;5091061;28;20069;-76
2022/07/21 12:28:42;;;;;;;10.05;4.32;;;31.10;80.70;;;;;;5087144;28;20039;-77
2022/07/21 12:31:14;;;;;;;7.15;3.95;;;31.30;80.70;;;;;;5088504;28;20020;-78
2022/07/21 12:33:40;;;;;;;11.73;5.20;;;31.20;80.20;;;;;;5092203;28;20480;-80
2022/07/21 12:36:08;;;;;;;8.77;3.72;;;30.90;79.60;;;;;;5085114;28;20013;-78
2022/07/21 12:38:42;;;;;;;8.25;4.55;;;31.10;81.60;;;;;;5081300;28;20020;-79
2022/07/21 12:41:13;;;;;;;8.57;4.90;;;31.40;82.20;;;;;;5080749;28;20025;-77
2022/07/21 12:43:40;;;;;;;9.13;4.20;;;31.40;77.50;;;;;;5087933;28;20075;-79
2022/07/21 12:46:12;;;;;;;8.68;4.28;;;31.60;79.30;;;;;;5096668;28;20028;-79
2022/07/21 12:48:38;;;;;;;6.03;3.60;;;31.80;76.90;;;;;;5098414;28;20077;-79
2022/07/21 12:51:15;;;;;;;8.50;4.10;;;31.90;77.70;;;;;;5095231;28;20128;-80